createdAt,value
2022-11-23T00:01:08.702Z,0
2022-11-23T00:06:31.824Z,0
2022-11-23T00:12:04.855Z,0
2022-11-23T00:17:32.371Z,0
2022-11-23T00:23:03.113Z,0
2022-11-23T00:28:34.480Z,0
2022-11-23T00:34:15.499Z,0
2022-11-23T00:39:58.499Z,0
2022-11-23T00:45:15.369Z,0
2022-11-23T00:50:43.056Z,0
2022-11-23T00:56:34.290Z,0
2022-11-23T01:02:10.163Z,0
2022-11-23T01:07:41.328Z,0
2022-11-23T01:13:03.629Z,0
2022-11-23T01:18:40.992Z,0
2022-11-23T01:24:01.738Z,0
2022-11-23T01:29:42.020Z,0
2022-11-23T01:35:09.164Z,0
2022-11-23T01:40:51.110Z,0
2022-11-23T01:45:58.725Z,0
2022-11-23T01:51:58.422Z,0
2022-11-23T01:57:15.391Z,0
2022-11-23T02:02:39.138Z,0
2022-11-23T02:08:19.170Z,3.6
2022-11-23T02:13:43.505Z,0
2022-11-23T02:19:12.049Z,0
2022-11-23T02:24:58.302Z,0
2022-11-23T02:30:28.343Z,0
2022-11-23T02:35:56.193Z,0
2022-11-23T02:41:30.566Z,0
2022-11-23T02:47:02.351Z,0
2022-11-23T02:52:47.097Z,0
2022-11-23T03:03:46.674Z,0
2022-11-23T03:09:25.009Z,0
2022-11-23T03:14:29.739Z,0
2022-11-23T03:20:11.974Z,0
2022-11-23T03:26:00.342Z,0
2022-11-23T03:31:11.627Z,0
2022-11-23T03:37:02.399Z,0
2022-11-23T03:42:09.392Z,0
2022-11-23T03:47:58.403Z,0
2022-11-23T03:53:29.086Z,0
2022-11-23T03:59:07.209Z,0
2022-11-23T04:04:42.001Z,0
2022-11-23T04:09:59.203Z,0
2022-11-23T04:15:34.388Z,0
2022-11-23T04:21:17.068Z,0
2022-11-23T04:26:51.382Z,3.6
2022-11-23T04:32:17.427Z,4.8
2022-11-23T04:37:32.645Z,5.9
2022-11-23T04:43:10.052Z,7.2
2022-11-23T04:49:01.463Z,4.8
2022-11-23T04:54:34.008Z,3.6
2022-11-23T04:59:53.313Z,4.8
2022-11-23T05:05:37.826Z,5.9
2022-11-23T05:11:04.460Z,3.6
2022-11-23T05:16:48.213Z,0
2022-11-23T05:22:10.964Z,0
2022-11-23T05:27:24.780Z,0
2022-11-23T05:33:10.492Z,0
2022-11-23T05:38:56.191Z,0
2022-11-23T05:44:08.414Z,0
2022-11-23T05:49:32.693Z,0
2022-11-23T05:55:29.974Z,0
2022-11-23T06:00:42.584Z,0
2022-11-23T06:06:09.355Z,0
2022-11-23T06:11:42.068Z,0
2022-11-23T06:17:27.508Z,0
2022-11-23T06:22:58.639Z,0
2022-11-23T06:28:19.826Z,0
2022-11-23T06:33:51.580Z,0
2022-11-23T06:39:47.274Z,0
2022-11-23T06:44:58.304Z,0
2022-11-23T06:50:39.453Z,0
2022-11-23T06:56:01.147Z,0
2022-11-23T07:01:37.280Z,0
2022-11-23T07:07:18.413Z,0
2022-11-23T07:12:40.473Z,0
2022-11-23T07:23:55.993Z,0
2022-11-23T07:29:13.073Z,0
2022-11-23T07:34:43.197Z,0
2022-11-23T07:40:11.746Z,0
2022-11-23T07:45:58.441Z,0
2022-11-23T07:51:16.586Z,0
2022-11-23T07:56:55.639Z,0
2022-11-23T08:02:29.234Z,0
2022-11-23T08:07:53.717Z,0
2022-11-23T08:13:29.639Z,0
2022-11-23T08:18:55.447Z,2.4
2022-11-23T08:24:44.869Z,3.6
2022-11-23T08:30:27.431Z,0
2022-11-23T08:35:46.657Z,0
2022-11-23T08:41:29.030Z,2.4
2022-11-23T08:47:04.620Z,0
2022-11-23T08:52:39.642Z,0
2022-11-23T08:57:44.618Z,2.4
2022-11-23T09:03:17.686Z,0
2022-11-23T09:09:14.905Z,2.4
2022-11-23T09:14:35.496Z,0
2022-11-23T09:19:58.872Z,0
2022-11-23T09:25:44.905Z,3.6
2022-11-23T09:31:23.003Z,3.6
2022-11-23T09:36:56.313Z,3.6
2022-11-23T09:42:25.857Z,3.6
2022-11-23T09:47:58.598Z,3.6
2022-11-23T09:53:21.988Z,2.4
2022-11-23T09:58:54.039Z,3.6
2022-11-23T10:04:28.157Z,5.9
2022-11-23T10:10:02.893Z,5.9
2022-11-23T10:15:38.370Z,5.9
2022-11-23T10:21:13.834Z,5.9
2022-11-23T10:26:30.636Z,4.8
2022-11-23T10:32:01.262Z,4.8
2022-11-23T10:38:00.614Z,7.2
2022-11-23T10:43:16.741Z,4.8
2022-11-23T10:48:54.041Z,4.8
2022-11-23T10:54:34.140Z,4.8
2022-11-23T10:59:48.847Z,5.9
2022-11-23T11:10:51.973Z,4.8
2022-11-23T11:16:36.694Z,5.9
2022-11-23T11:22:04.571Z,7.2
2022-11-23T11:27:46.303Z,7.2
2022-11-23T11:33:25.648Z,4.8
2022-11-23T11:38:40.594Z,3.6
2022-11-23T11:44:36.266Z,5.9
2022-11-23T11:50:07.427Z,4.8
2022-11-23T11:55:30.006Z,4.8
2022-11-23T12:01:02.426Z,3.6
2022-11-23T12:06:26.721Z,5.9
2022-11-23T12:12:14.219Z,5.9
2022-11-23T12:17:53.546Z,7.2
2022-11-23T12:23:07.700Z,5.9
2022-11-23T12:28:49.383Z,8.4
2022-11-23T12:34:06.449Z,7.2
2022-11-23T12:39:51.430Z,8.4
2022-11-23T12:45:31.501Z,7.2
2022-11-23T12:51:04.998Z,5.9
2022-11-23T12:56:30.782Z,7.2
2022-11-23T13:02:21.781Z,7.2
2022-11-23T13:07:44.810Z,5.9
2022-11-23T13:13:27.294Z,5.9
2022-11-23T13:18:43.809Z,5.9
2022-11-23T13:24:10.343Z,7.2
2022-11-23T13:29:45.162Z,5.9
2022-11-23T13:35:37.646Z,7.2
2022-11-23T13:40:52.163Z,7.2
2022-11-23T13:46:21.183Z,5.9
2022-11-23T13:52:19.231Z,7.2
2022-11-23T13:57:27.300Z,8.4
2022-11-23T14:03:09.045Z,7.2
2022-11-23T14:08:35.157Z,7.2
2022-11-23T14:14:11.406Z,7.2
2022-11-23T14:19:46.685Z,5.9
2022-11-23T14:25:30.965Z,7.2
2022-11-23T14:31:01.773Z,3.6
2022-11-23T14:36:33.643Z,7.2
2022-11-23T14:42:06.159Z,5.9
2022-11-23T14:47:50.152Z,4.8
2022-11-23T14:58:58.591Z,4.8
2022-11-23T15:04:17.154Z,7.2
2022-11-23T15:09:46.752Z,5.9
2022-11-23T15:15:21.087Z,8.4
2022-11-23T15:20:56.611Z,10.7
2022-11-23T15:26:47.185Z,10.7
2022-11-23T15:32:07.253Z,8.4
2022-11-23T15:37:49.952Z,9.6
2022-11-23T15:43:21.421Z,9.6
2022-11-23T15:48:44.149Z,10.7
2022-11-23T15:54:06.703Z,8.4
2022-11-23T15:59:44.281Z,8.4
2022-11-23T16:05:28.326Z,8.4
2022-11-23T16:10:42.073Z,5.9
2022-11-23T16:16:14.642Z,7.2
2022-11-23T16:22:02.133Z,7.2
2022-11-23T16:27:43.481Z,7.2
2022-11-23T16:32:58.484Z,7.2
2022-11-23T16:38:39.180Z,4.8
2022-11-23T16:44:16.651Z,7.2
2022-11-23T16:49:53.708Z,7.2
2022-11-23T16:55:28.497Z,3.6
2022-11-23T17:01:02.949Z,7.2
2022-11-23T17:06:37.549Z,5.9
2022-11-23T17:11:53.343Z,5.9
2022-11-23T17:17:32.025Z,4.8
2022-11-23T17:23:15.489Z,5.9
2022-11-23T17:28:27.121Z,4.8
2022-11-23T17:33:53.812Z,7.2
2022-11-23T17:39:52.382Z,5.9
2022-11-23T17:44:59.981Z,2.4
2022-11-23T17:50:56.486Z,4.8
2022-11-23T17:56:28.503Z,5.9
2022-11-23T18:01:53.972Z,2.4
2022-11-23T18:07:26.983Z,0
2022-11-23T18:12:48.958Z,4.8
2022-11-23T18:18:20.460Z,4.8
2022-11-23T18:24:06.263Z,4.8
2022-11-23T18:29:43.272Z,5.9
2022-11-23T18:35:09.475Z,3.6
2022-11-23T18:40:58.526Z,3.6
2022-11-23T18:46:04.121Z,0
2022-11-23T18:51:37.757Z,0
2022-11-23T18:57:19.434Z,2.4
2022-11-23T19:03:00.924Z,3.6
2022-11-23T19:08:13.288Z,2.4
2022-11-23T19:14:09.130Z,0
2022-11-23T19:19:42.914Z,0
2022-11-23T19:25:03.028Z,2.4
2022-11-23T19:30:30.437Z,3.6
2022-11-23T19:35:57.796Z,0
2022-11-23T19:41:39.544Z,0
2022-11-23T19:47:15.501Z,0
2022-11-23T19:52:55.799Z,0
2022-11-23T19:58:29.521Z,3.6
2022-11-23T20:03:32.941Z,3.6
2022-11-23T20:09:15.791Z,3.6
2022-11-23T20:14:55.021Z,5.9
2022-11-23T20:20:11.424Z,5.9
2022-11-23T20:25:54.236Z,3.6
2022-11-23T20:31:19.952Z,3.6
2022-11-23T20:36:55.477Z,2.4
2022-11-23T20:42:38.889Z,2.4
2022-11-23T20:48:19.770Z,0
2022-11-23T20:53:46.070Z,5.9
2022-11-23T20:59:09.336Z,3.6
2022-11-23T21:04:39.947Z,3.6
2022-11-23T21:10:20.442Z,2.4
2022-11-23T21:15:43.026Z,3.6
2022-11-23T21:21:12.700Z,3.6
2022-11-23T21:27:02.033Z,3.6
2022-11-23T21:32:37.988Z,2.4
2022-11-23T21:38:15.141Z,5.9
2022-11-23T21:43:32.324Z,3.6
2022-11-23T21:48:56.950Z,3.6
2022-11-23T21:54:30.680Z,0
2022-11-23T22:00:31.119Z,0
2022-11-23T22:05:46.078Z,3.6
2022-11-23T22:11:03.551Z,0
2022-11-23T22:16:36.383Z,2.4
2022-11-23T22:22:22.840Z,0
2022-11-23T22:27:44.403Z,0
2022-11-23T22:33:40.227Z,3.6
2022-11-23T22:38:56.568Z,4.8
2022-11-23T22:44:19.373Z,3.6
2022-11-23T22:50:11.506Z,4.8
2022-11-23T22:55:48.303Z,4.8
2022-11-23T23:00:56.696Z,4.8
2022-11-23T23:06:56.432Z,4.8
2022-11-23T23:12:20.733Z,3.6
2022-11-23T23:17:52.998Z,3.6
2022-11-23T23:23:08.426Z,7.2
2022-11-23T23:29:04.227Z,4.8
2022-11-23T23:34:15.609Z,7.2
2022-11-23T23:40:01.118Z,7.2
2022-11-23T23:45:22.865Z,4.8
2022-11-23T23:51:16.152Z,5.9
2022-11-23T23:56:44.081Z,7.2
